Time;durP1;ratioP1;P1;durP2;ratioP2;P2;SDS_P1;SDS_P2;PMS_P1;PMS_P2;Temp;Humidity;BMP_temperature;BMP_pressure;BME280_temperature;BME280_humidity;BME280_pressure;Samples;Min_cycle;Max_cycle;Signal;HPM_P1;HPM_P2
2022/10/22 00:02:03;;;;;;;10.40;6.70;;;;;;;;;;5096234;28;20204;-65
2022/10/22 00:04:29;;;;;;;14.30;8.00;;;;;;;;;;5114019;28;20260;-65
2022/10/22 00:06:54;;;;;;;16.27;10.33;;;;;;;;;;5095623;28;20211;-64
2022/10/22 00:09:20;;;;;;;23.10;14.03;;;;;;;;;;5114162;28;20225;-65
2022/10/22 00:11:46;;;;;;;17.10;9.67;;;;;;;;;;5095616;28;20200;-65
2022/10/22 00:14:12;;;;;;;17.63;11.30;;;;;;;;;;5114355;28;20279;-65
2022/10/22 00:16:38;;;;;;;19.20;10.60;;;;;;;;;;5113566;28;20705;-65
2022/10/22 00:19:04;;;;;;;14.37;10.13;;;;;;;;;;5114068;28;20191;-65
2022/10/22 00:21:30;;;;;;;25.80;13.50;;;;;;;;;;5095360;28;20219;-65
2022/10/22 00:23:56;;;;;;;22.23;11.90;;;;;;;;;;5113788;28;20221;-65
2022/10/22 00:26:22;;;;;;;14.90;8.17;;;;;;;;;;5113919;28;20317;-66
2022/10/22 00:28:48;;;;;;;15.13;7.77;;;;;;;;;;5095395;28;20169;-64
2022/10/22 00:31:14;;;;;;;15.93;8.40;;;;;;;;;;5113610;28;20203;-65
2022/10/22 00:33:40;;;;;;;18.80;10.90;;;;;;;;;;5113664;28;20250;-65
2022/10/22 00:36:06;;;;;;;12.93;7.23;;;;;;;;;;5095321;28;20213;-65
2022/10/22 00:38:33;;;;;;;23.20;11.43;;;;;;;;;;5113594;28;20225;-64
2022/10/22 00:40:59;;;;;;;14.03;7.20;;;;;;;;;;5095263;28;20200;-65
2022/10/22 00:43:26;;;;;;;14.43;7.20;;;;;;;;;;5113593;28;20176;-66
2022/10/22 00:45:52;;;;;;;11.90;6.87;;;;;;;;;;5114042;28;20184;-64
2022/10/22 00:48:20;;;;;;;14.13;7.20;;;;;;;;;;5113479;28;20229;-64
2022/10/22 00:50:48;;;;;;;11.80;6.43;;;;;;;;;;5113344;28;20649;-66
2022/10/22 00:53:16;;;;;;;14.83;6.67;;;;;;;;;;5113603;28;20555;-65
2022/10/22 00:55:43;;;;;;;10.80;7.07;;;;;;;;;;5113569;28;20200;-65
2022/10/22 00:58:09;;;;;;;17.40;7.47;;;;;;;;;;5113298;28;20259;-65
2022/10/22 01:00:35;;;;;;;9.83;6.80;;;;;;;;;;5113576;28;20172;-64
2022/10/22 01:03:01;;;;;;;10.13;6.57;;;;;;;;;;5113337;28;20177;-64
2022/10/22 01:05:28;;;;;;;14.77;7.33;;;;;;;;;;5113843;28;20176;-65
2022/10/22 01:07:54;;;;;;;17.37;7.47;;;;;;;;;;5095184;28;20196;-64
2022/10/22 01:10:27;;;;;;;14.83;7.80;;;;;;;;;;5113589;28;20180;-62
2022/10/22 01:12:55;;;;;;;12.63;7.80;;;;;;;;;;5113313;28;20279;-64
2022/10/22 01:15:31;;;;;;;14.43;7.57;;;;;;;;;;5113391;28;20200;-65
2022/10/22 01:18:05;;;;;;;17.37;7.90;;;;;;;;;;5095207;28;20173;-64
2022/10/22 01:20:44;;;;;;;10.10;6.77;;;;;;;;;;5113629;28;20196;-65
2022/10/22 01:23:16;;;;;;;18.07;7.83;;;;;;;;;;5113250;28;20169;-65
2022/10/22 01:25:51;;;;;;;13.17;7.43;;;;;;;;;;5113327;28;20208;-64
2022/10/22 01:28:22;;;;;;;17.67;8.10;;;;;;;;;;5116254;28;20171;-65
2022/10/22 01:30:50;;;;;;;19.83;7.93;;;;;;;;;;5098716;28;20608;-65
2022/10/22 01:33:18;;;;;;;13.63;7.50;;;;;;;;;;5117522;28;20198;-65
2022/10/22 01:35:44;;;;;;;16.37;7.77;;;;;;;;;;5116780;28;20204;-65
2022/10/22 01:38:13;;;;;;;14.80;7.40;;;;;;;;;;5116919;28;20176;-65
2022/10/22 01:40:39;;;;;;;16.07;7.80;;;;;;;;;;5116841;28;20168;-65
2022/10/22 01:43:06;;;;;;;11.63;7.17;;;;;;;;;;5098511;28;20185;-65
2022/10/22 01:45:35;;;;;;;11.43;7.80;;;;;;;;;;5116771;28;20204;-65
2022/10/22 01:48:12;;;;;;;12.50;7.50;;;;;;;;;;5116934;28;20177;-65
2022/10/22 01:50:46;;;;;;;11.03;8.07;;;;;;;;;;5098432;28;20180;-64
2022/10/22 01:53:18;;;;;;;16.73;8.00;;;;;;;;;;5098435;28;20271;-65
2022/10/22 01:55:47;;;;;;;13.27;7.57;;;;;;;;;;5098389;28;20211;-65
2022/10/22 01:58:13;;;;;;;11.67;8.23;;;;;;;;;;5116565;28;20208;-65
2022/10/22 02:00:44;;;;;;;13.87;7.70;;;;;;;;;;5098173;28;20203;-64
2022/10/22 02:03:13;;;;;;;11.63;7.57;;;;;;;;;;5098269;28;20263;-65
2022/10/22 02:05:39;;;;;;;10.87;8.07;;;;;;;;;;5116532;28;20180;-65
2022/10/22 02:08:10;;;;;;;21.23;8.27;;;;;;;;;;5116421;28;20279;-65
2022/10/22 02:10:37;;;;;;;15.77;7.50;;;;;;;;;;5116805;28;20168;-65
2022/10/22 02:13:04;;;;;;;15.03;8.10;;;;;;;;;;5116368;28;20190;-65
2022/10/22 02:15:30;;;;;;;15.27;8.03;;;;;;;;;;5116717;28;20203;-65
2022/10/22 02:17:58;;;;;;;14.27;7.57;;;;;;;;;;5116535;28;20630;-65
2022/10/22 02:20:26;;;;;;;14.10;8.23;;;;;;;;;;5116561;28;20173;-64
2022/10/22 02:22:52;;;;;;;14.37;8.00;;;;;;;;;;5116444;28;20223;-65
2022/10/22 02:25:21;;;;;;;19.17;9.10;;;;;;;;;;5115959;28;20181;-66
2022/10/22 02:27:49;;;;;;;19.53;8.33;;;;;;;;;;5097740;28;20279;-65
2022/10/22 02:30:17;;;;;;;12.17;9.03;;;;;;;;;;5116473;28;20212;-64
2022/10/22 02:32:45;;;;;;;11.87;8.20;;;;;;;;;;5115857;28;20241;-65
2022/10/22 02:35:13;;;;;;;14.23;8.33;;;;;;;;;;5115825;28;20791;-65
2022/10/22 02:37:39;;;;;;;15.37;7.20;;;;;;;;;;5116239;28;20183;-65
2022/10/22 02:40:06;;;;;;;17.00;8.70;;;;;;;;;;5115891;28;20582;-65
2022/10/22 02:42:32;;;;;;;15.23;9.17;;;;;;;;;;5115724;28;20233;-65
2022/10/22 02:44:58;;;;;;;16.50;9.07;;;;;;;;;;5115633;28;20560;-65
2022/10/22 02:47:24;;;;;;;12.70;8.37;;;;;;;;;;5098157;28;20191;-65
2022/10/22 02:49:50;;;;;;;13.07;7.93;;;;;;;;;;5115632;28;20206;-65
2022/10/22 02:52:16;;;;;;;14.70;9.20;;;;;;;;;;5097199;28;20224;-65
2022/10/22 02:54:42;;;;;;;11.10;8.27;;;;;;;;;;5115914;28;20200;-65
2022/10/22 02:57:08;;;;;;;18.07;9.53;;;;;;;;;;5115467;28;20683;-65
2022/10/22 02:59:34;;;;;;;16.67;8.80;;;;;;;;;;5115339;28;20177;-64
2022/10/22 03:02:00;;;;;;;16.10;8.10;;;;;;;;;;5097107;28;20199;-64
2022/10/22 03:04:26;;;;;;;16.83;8.53;;;;;;;;;;5097037;28;20181;-65
2022/10/22 03:06:52;;;;;;;12.77;8.60;;;;;;;;;;5115195;28;20180;-64
2022/10/22 03:09:18;;;;;;;14.13;8.93;;;;;;;;;;5115747;28;20204;-65
2022/10/22 03:11:44;;;;;;;15.00;8.60;;;;;;;;;;5114994;28;20206;-64
2022/10/22 03:14:10;;;;;;;21.20;9.13;;;;;;;;;;5115086;28;20222;-64
2022/10/22 03:16:36;;;;;;;18.17;8.93;;;;;;;;;;5115405;28;20177;-64
2022/10/22 03:19:02;;;;;;;18.27;8.97;;;;;;;;;;5097110;28;20188;-63
2022/10/22 03:21:33;;;;;;;13.47;8.67;;;;;;;;;;5115072;28;20349;-64
2022/10/22 03:24:02;;;;;;;18.20;9.33;;;;;;;;;;5115160;28;20165;-64
2022/10/22 03:26:28;;;;;;;16.47;9.67;;;;;;;;;;5114865;28;20169;-64
2022/10/22 03:28:54;;;;;;;15.27;9.33;;;;;;;;;;5115084;28;20248;-64
2022/10/22 03:31:20;;;;;;;18.10;9.53;;;;;;;;;;5096500;28;20200;-64
2022/10/22 03:33:46;;;;;;;19.97;9.60;;;;;;;;;;5096480;28;20267;-64
2022/10/22 03:36:12;;;;;;;18.37;8.93;;;;;;;;;;5115012;28;20257;-64
2022/10/22 03:38:39;;;;;;;19.07;9.33;;;;;;;;;;5114708;28;20183;-63
2022/10/22 03:41:05;;;;;;;17.07;9.77;;;;;;;;;;5096515;28;20196;-65
2022/10/22 03:43:31;;;;;;;16.97;10.13;;;;;;;;;;5114591;28;20226;-65
2022/10/22 03:45:57;;;;;;;14.30;9.70;;;;;;;;;;5114948;28;20177;-65
2022/10/22 03:48:23;;;;;;;17.97;9.97;;;;;;;;;;5114396;28;20183;-65
2022/10/22 03:50:49;;;;;;;14.93;9.80;;;;;;;;;;5095373;28;20180;-65
2022/10/22 03:53:15;;;;;;;15.37;10.10;;;;;;;;;;5114304;28;20709;-65
2022/10/22 03:55:41;;;;;;;15.40;10.77;;;;;;;;;;5114589;28;20292;-64
2022/10/22 03:58:07;;;;;;;11.70;9.03;;;;;;;;;;5114200;28;20178;-65
2022/10/22 04:00:34;;;;;;;21.77;10.93;;;;;;;;;;5096176;28;20656;-65
2022/10/22 04:03:00;;;;;;;21.77;10.20;;;;;;;;;;5095815;28;20184;-65
2022/10/22 04:05:26;;;;;;;14.73;10.20;;;;;;;;;;5114365;28;20184;-65
2022/10/22 04:07:52;;;;;;;15.87;9.90;;;;;;;;;;5114572;28;20183;-65
2022/10/22 04:10:18;;;;;;;15.43;10.20;;;;;;;;;;5095848;28;20261;-65
2022/10/22 04:12:47;;;;;;;19.03;10.90;;;;;;;;;;5114050;28;20560;-65
2022/10/22 04:15:12;;;;;;;17.00;9.53;;;;;;;;;;5114290;28;20204;-65
2022/10/22 04:17:38;;;;;;;16.03;10.80;;;;;;;;;;5095647;28;20183;-64
2022/10/22 04:20:05;;;;;;;18.20;10.50;;;;;;;;;;5114246;28;20184;-65
2022/10/22 04:22:33;;;;;;;20.17;10.80;;;;;;;;;;5095546;28;20222;-65
2022/10/22 04:24:59;;;;;;;16.20;10.23;;;;;;;;;;5114536;28;20187;-64
2022/10/22 04:27:25;;;;;;;19.10;10.60;;;;;;;;;;5125023;22;20224;-70
2022/10/22 04:29:51;;;;;;;22.67;10.80;;;;;;;;;;5112552;28;20263;-68
2022/10/22 04:32:17;;;;;;;16.63;10.90;;;;;;;;;;5113848;28;20199;-69
2022/10/22 04:34:43;;;;;;;18.40;11.97;;;;;;;;;;5114243;28;20558;-69
2022/10/22 04:37:09;;;;;;;19.63;11.20;;;;;;;;;;5112303;28;20196;-69
2022/10/22 04:39:35;;;;;;;16.43;10.50;;;;;;;;;;5113672;28;20176;-69
2022/10/22 04:42:02;;;;;;;16.53;11.27;;;;;;;;;;5113603;28;20183;-69
2022/10/22 04:44:28;;;;;;;16.10;11.13;;;;;;;;;;5112419;28;20189;-69
2022/10/22 04:46:54;;;;;;;14.83;10.77;;;;;;;;;;5113587;28;20265;-69
2022/10/22 04:49:20;;;;;;;22.60;10.53;;;;;;;;;;5113954;28;20176;-69
2022/10/22 04:51:46;;;;;;;15.80;10.37;;;;;;;;;;5113812;28;20176;-69
2022/10/22 04:54:12;;;;;;;19.87;11.20;;;;;;;;;;5113449;28;20222;-69
2022/10/22 04:56:38;;;;;;;26.00;11.23;;;;;;;;;;5113581;28;20675;-69
2022/10/22 04:59:05;;;;;;;17.67;11.23;;;;;;;;;;5113823;28;20177;-70
2022/10/22 05:01:31;;;;;;;19.73;10.97;;;;;;;;;;5112154;28;20238;-69
2022/10/22 05:03:58;;;;;;;21.63;11.83;;;;;;;;;;5117523;28;20176;-69
2022/10/22 05:06:24;;;;;;;24.63;11.97;;;;;;;;;;5116310;28;20184;-69
2022/10/22 05:08:54;;;;;;;23.60;12.53;;;;;;;;;;5117525;28;20203;-69
2022/10/22 05:11:22;;;;;;;17.30;11.00;;;;;;;;;;5117590;28;20180;-69
2022/10/22 05:13:47;;;;;;;20.30;12.27;;;;;;;;;;5117531;28;20177;-69
2022/10/22 05:16:14;;;;;;;20.50;13.03;;;;;;;;;;5117594;28;20200;-69
2022/10/22 05:18:41;;;;;;;21.40;13.13;;;;;;;;;;5117392;28;20271;-69
2022/10/22 05:21:11;;;;;;;24.67;13.50;;;;;;;;;;5116105;28;20230;-69
2022/10/22 05:23:37;;;;;;;24.73;13.07;;;;;;;;;;5117383;28;20277;-69
2022/10/22 05:26:04;;;;;;;23.90;13.23;;;;;;;;;;5116073;28;20261;-70
2022/10/22 05:28:30;;;;;;;20.80;12.33;;;;;;;;;;5117112;28;20216;-70
2022/10/22 05:30:57;;;;;;;25.10;14.67;;;;;;;;;;5115992;28;20181;-69
2022/10/22 05:33:23;;;;;;;26.03;16.07;;;;;;;;;;5117101;28;20177;-69
2022/10/22 05:35:49;;;;;;;22.30;15.97;;;;;;;;;;5116926;28;20664;-70
2022/10/22 05:38:15;;;;;;;24.13;16.37;;;;;;;;;;5116008;28;20626;-70
2022/10/22 05:40:41;;;;;;;24.47;15.27;;;;;;;;;;5117178;28;20199;-70
2022/10/22 05:43:07;;;;;;;21.50;15.27;;;;;;;;;;5117012;28;20172;-70
2022/10/22 05:45:37;;;;;;;22.30;15.57;;;;;;;;;;5116964;27;20217;-70
2022/10/22 05:48:03;;;;;;;26.73;14.67;;;;;;;;;;5116799;28;20196;-70
2022/10/22 05:50:29;;;;;;;21.17;14.37;;;;;;;;;;5115553;28;20614;-69
2022/10/22 05:52:55;;;;;;;25.50;13.97;;;;;;;;;;5116860;27;20176;-70
2022/10/22 05:55:21;;;;;;;22.53;14.23;;;;;;;;;;5116758;27;20711;-70
2022/10/22 05:57:48;;;;;;;22.17;13.73;;;;;;;;;;5116850;28;20196;-70
2022/10/22 06:00:15;;;;;;;21.10;13.27;;;;;;;;;;5116876;28;20168;-70
2022/10/22 06:02:41;;;;;;;19.40;13.90;;;;;;;;;;5116963;28;20199;-70
2022/10/22 06:05:07;;;;;;;19.73;12.90;;;;;;;;;;5115303;28;20186;-70
2022/10/22 06:07:33;;;;;;;19.37;13.07;;;;;;;;;;5115205;28;20653;-69
2022/10/22 06:09:59;;;;;;;21.07;13.17;;;;;;;;;;5115174;28;20271;-70
2022/10/22 06:12:25;;;;;;;20.67;12.07;;;;;;;;;;5116366;28;20240;-70
2022/10/22 06:14:51;;;;;;;20.07;13.03;;;;;;;;;;5114521;28;20201;-70
2022/10/22 06:17:18;;;;;;;18.77;11.70;;;;;;;;;;5116218;28;20261;-69
2022/10/22 06:19:44;;;;;;;16.30;11.70;;;;;;;;;;5114993;28;20176;-69
2022/10/22 06:22:10;;;;;;;19.63;11.33;;;;;;;;;;5114994;28;20638;-69
2022/10/22 06:24:36;;;;;;;16.67;11.30;;;;;;;;;;5116129;28;20185;-70
2022/10/22 06:27:02;;;;;;;16.87;10.57;;;;;;;;;;5114548;28;20212;-69
2022/10/22 06:29:28;;;;;;;16.50;10.30;;;;;;;;;;5116347;27;20201;-71
2022/10/22 06:31:54;;;;;;;16.37;9.70;;;;;;;;;;5116240;28;20547;-70
2022/10/22 06:34:20;;;;;;;19.13;9.93;;;;;;;;;;5115936;28;20180;-70
2022/10/22 06:36:46;;;;;;;21.83;10.67;;;;;;;;;;5114606;28;20249;-69
2022/10/22 06:39:13;;;;;;;17.83;9.77;;;;;;;;;;5116140;28;20177;-70
2022/10/22 06:41:39;;;;;;;15.33;8.97;;;;;;;;;;5115867;28;20180;-70
2022/10/22 06:44:05;;;;;;;13.53;8.77;;;;;;;;;;5116303;28;20524;-70
2022/10/22 06:46:31;;;;;;;18.03;8.67;;;;;;;;;;5115864;27;20186;-69
2022/10/22 06:48:58;;;;;;;12.43;7.43;;;;;;;;;;5114436;27;20190;-69
2022/10/22 06:51:25;;;;;;;10.13;7.90;;;;;;;;;;5115651;28;20610;-69
2022/10/22 06:53:51;;;;;;;10.60;7.87;;;;;;;;;;5115639;28;20180;-70
2022/10/22 06:56:19;;;;;;;16.93;7.90;;;;;;;;;;5114164;28;20668;-69
2022/10/22 06:58:48;;;;;;;10.97;7.30;;;;;;;;;;5114165;28;20207;-69
2022/10/22 07:01:15;;;;;;;15.57;7.47;;;;;;;;;;5114263;28;20548;-70
2022/10/22 07:03:41;;;;;;;12.03;6.77;;;;;;;;;;5115978;28;20255;-70
2022/10/22 07:06:09;;;;;;;12.10;6.40;;;;;;;;;;5115340;27;20221;-69
2022/10/22 07:08:36;;;;;;;13.23;6.47;;;;;;;;;;5113925;28;20688;-70
2022/10/22 07:11:09;;;;;;;10.80;5.30;;;;;;;;;;5115524;27;20176;-68
2022/10/22 07:13:35;;;;;;;8.63;4.80;;;;;;;;;;5113914;28;20207;-69
2022/10/22 07:16:01;;;;;;;9.77;4.63;;;;;;;;;;5115120;28;20204;-69
2022/10/22 07:18:27;;;;;;;11.17;4.53;;;;;;;;;;5113767;28;20571;-69
2022/10/22 07:20:53;;;;;;;12.53;3.90;;;;;;;;;;5113747;28;20294;-69
2022/10/22 07:23:19;;;;;;;10.63;3.57;;;;;;;;;;5113665;28;20177;-70
2022/10/22 07:25:45;;;;;;;7.50;3.77;;;;;;;;;;5114318;28;20260;-70
2022/10/22 07:28:11;;;;;;;7.57;3.63;;;;;;;;;;5113370;28;20236;-70
2022/10/22 07:30:38;;;;;;;12.47;3.33;;;;;;;;;;5113584;28;20233;-70
2022/10/22 07:33:04;;;;;;;9.40;3.50;;;;;;;;;;5114723;28;20263;-70
2022/10/22 07:35:30;;;;;;;9.73;3.23;;;;;;;;;;5114595;27;20211;-69
2022/10/22 07:37:56;;;;;;;12.00;3.10;;;;;;;;;;5114775;28;20200;-69
2022/10/22 07:40:22;;;;;;;8.93;3.27;;;;;;;;;;5113390;28;20208;-70
2022/10/22 07:42:48;;;;;;;8.90;3.40;;;;;;;;;;5113349;28;20211;-69
2022/10/22 07:45:14;;;;;;;6.13;3.10;;;;;;;;;;5113317;28;20239;-69
2022/10/22 07:47:40;;;;;;;8.10;3.10;;;;;;;;;;5113253;27;20246;-70
2022/10/22 07:50:06;;;;;;;11.70;3.30;;;;;;;;;;5113112;28;20184;-69
2022/10/22 07:52:33;;;;;;;11.87;3.83;;;;;;;;;;5114463;28;20173;-69
2022/10/22 07:54:59;;;;;;;10.43;3.43;;;;;;;;;;5112958;28;20668;-69
2022/10/22 07:57:24;;;;;;;7.60;2.90;;;;;;;;;;5114236;28;20267;-69
2022/10/22 07:59:50;;;;;;;8.10;3.03;;;;;;;;;;5114150;28;20656;-68
2022/10/22 08:02:16;;;;;;;7.27;3.23;;;;;;;;;;5114580;28;20313;-69
2022/10/22 08:04:42;;;;;;;7.23;3.37;;;;;;;;;;5114210;28;20180;-69
2022/10/22 08:07:08;;;;;;;9.33;3.27;;;;;;;;;;5114229;28;20289;-69
2022/10/22 08:09:34;;;;;;;7.43;3.20;;;;;;;;;;5114045;28;20640;-69
2022/10/22 08:12:00;;;;;;;8.63;2.73;;;;;;;;;;5114124;28;20335;-70
2022/10/22 08:14:26;;;;;;;9.20;3.00;;;;;;;;;;5113971;27;20181;-69
2022/10/22 08:16:52;;;;;;;6.53;2.70;;;;;;;;;;5112683;28;20636;-69
2022/10/22 08:19:20;;;;;;;13.73;3.43;;;;;;;;;;5112724;28;20192;-70
2022/10/22 08:21:46;;;;;;;11.20;2.90;;;;;;;;;;5114916;28;20173;-69
2022/10/22 08:24:13;;;;;;;10.10;2.87;;;;;;;;;;5115215;28;20168;-69
2022/10/22 08:26:39;;;;;;;14.60;2.87;;;;;;;;;;5114716;28;20169;-70
2022/10/22 08:29:05;;;;;;;10.93;3.10;;;;;;;;;;5114836;28;20527;-69
2022/10/22 08:31:31;;;;;;;6.90;2.77;;;;;;;;;;5113981;28;20177;-69
2022/10/22 08:33:57;;;;;;;10.03;2.53;;;;;;;;;;5112564;28;20181;-69
2022/10/22 08:36:23;;;;;;;11.60;3.10;;;;;;;;;;5113942;28;20203;-69
2022/10/22 08:38:49;;;;;;;6.57;2.70;;;;;;;;;;5112412;28;20271;-69
2022/10/22 08:41:19;;;;;;;10.33;2.87;;;;;;;;;;5112429;28;20603;-70
2022/10/22 08:44:04;;;;;;;7.20;2.30;;;;;;;;;;5112651;28;20584;-69
2022/10/22 08:46:46;;;;;;;8.13;3.27;;;;;;;;;;5113753;28;20652;-69
2022/10/22 08:49:16;;;;;;;9.43;3.40;;;;;;;;;;5113863;28;20156;-69
2022/10/22 08:51:42;;;;;;;4.67;2.67;;;;;;;;;;5114147;28;20192;-69
2022/10/22 08:54:18;;;;;;;6.20;2.60;;;;;;;;;;5112290;28;20180;-69
2022/10/22 08:56:45;;;;;;;14.40;3.10;;;;;;;;;;5113576;28;20176;-69
2022/10/22 08:59:15;;;;;;;10.23;3.23;;;;;;;;;;5113758;28;20222;-69
2022/10/22 09:01:45;;;;;;;11.50;2.87;;;;;;;;;;5113155;28;20187;-69
2022/10/22 09:04:11;;;;;;;12.70;2.80;;;;;;;;;;5113628;28;20179;-69
2022/10/22 09:06:39;;;;;;;9.20;3.23;;;;;;;;;;5113651;28;20176;-69
2022/10/22 09:09:10;;;;;;;11.57;2.80;;;;;;;;;;5114110;28;20178;-69
2022/10/22 09:11:37;;;;;;;7.17;2.80;;;;;;;;;;5112309;28;20176;-69
2022/10/22 09:14:04;;;;;;;10.17;2.90;;;;;;;;;;5113608;28;20263;-69
2022/10/22 09:16:36;;;;;;;5.13;2.70;;;;;;;;;;5113706;28;20249;-70
2022/10/22 09:19:18;;;;;;;11.07;2.70;;;;;;;;;;5113319;28;20173;-69
2022/10/22 09:22:03;;;;;;;9.70;2.60;;;;;;;;;;5113364;28;20665;-69
2022/10/22 09:24:35;;;;;;;16.40;3.10;;;;;;;;;;5113316;28;20222;-69
2022/10/22 09:27:01;;;;;;;8.20;3.03;;;;;;;;;;5113077;28;20204;-69
2022/10/22 09:29:34;;;;;;;10.40;2.70;;;;;;;;;;5113790;28;20649;-69
2022/10/22 09:32:00;;;;;;;5.60;2.50;;;;;;;;;;5112009;28;20226;-69
2022/10/22 09:34:28;;;;;;;6.13;3.00;;;;;;;;;;5113257;28;20172;-69
2022/10/22 09:37:01;;;;;;;8.23;2.90;;;;;;;;;;5113348;28;20555;-69
2022/10/22 09:39:29;;;;;;;5.23;2.20;;;;;;;;;;5113583;28;20179;-69
2022/10/22 09:41:55;;;;;;;7.77;2.50;;;;;;;;;;5113186;28;20211;-70
2022/10/22 09:44:21;;;;;;;5.20;2.60;;;;;;;;;;5113150;28;20195;-69
2022/10/22 09:46:47;;;;;;;8.43;2.93;;;;;;;;;;5111803;28;20206;-69
2022/10/22 09:49:15;;;;;;;9.73;2.70;;;;;;;;;;5115726;28;20172;-69
2022/10/22 09:51:52;;;;;;;10.27;2.43;;;;;;;;;;5116896;28;20201;-68
2022/10/22 09:54:19;;;;;;;7.57;2.97;;;;;;;;;;5115500;28;20179;-69
2022/10/22 09:57:06;;;;;;;7.53;2.70;;;;;;;;;;5117239;28;20173;-69
2022/10/22 09:59:40;;;;;;;11.80;3.00;;;;;;;;;;5119814;28;20551;-70
2022/10/22 10:02:10;;;;;;;8.93;2.90;;;;;;;;;;5119346;28;20176;-69
2022/10/22 10:04:40;;;;;;;11.30;2.60;;;;;;;;;;5119559;28;20206;-70
2022/10/22 10:07:14;;;;;;;12.93;2.70;;;;;;;;;;5120305;28;20196;-70
2022/10/22 10:09:40;;;;;;;7.57;2.57;;;;;;;;;;5116973;28;20164;-70
2022/10/22 10:12:14;;;;;;;6.13;2.10;;;;;;;;;;5116446;28;20281;-70
2022/10/22 10:14:40;;;;;;;10.20;3.13;;;;;;;;;;5115143;28;20270;-70
2022/10/22 10:17:06;;;;;;;6.60;2.70;;;;;;;;;;5116735;28;20242;-69
2022/10/22 10:19:46;;;;;;;6.20;2.50;;;;;;;;;;5116344;28;20321;-70
2022/10/22 10:22:15;;;;;;;5.73;2.33;;;;;;;;;;5115441;28;20628;-71
2022/10/22 10:24:41;;;;;;;8.53;2.63;;;;;;;;;;5116446;28;20253;-70
2022/10/22 10:27:28;;;;;;;6.33;2.23;;;;;;;;;;5115996;28;20216;-70
2022/10/22 10:29:58;;;;;;;6.90;1.90;;;;;;;;;;5116382;28;20180;-70
2022/10/22 10:32:30;;;;;;;6.90;2.03;;;;;;;;;;5115017;28;20169;-70
2022/10/22 10:34:56;;;;;;;7.37;2.10;;;;;;;;;;5114871;28;20188;-70
2022/10/22 10:37:24;;;;;;;7.90;2.13;;;;;;;;;;5114721;28;20200;-70
2022/10/22 10:40:03;;;;;;;8.87;2.47;;;;;;;;;;5115970;28;20263;-69
2022/10/22 10:42:32;;;;;;;4.80;2.07;;;;;;;;;;5115952;28;20217;-69
2022/10/22 10:45:08;;;;;;;5.87;2.10;;;;;;;;;;5114476;28;20272;-69
2022/10/22 10:47:45;;;;;;;9.03;2.63;;;;;;;;;;5116061;27;20730;-70
2022/10/22 10:50:14;;;;;;;6.50;2.20;;;;;;;;;;5115819;28;20179;-70
2022/10/22 10:52:44;;;;;;;9.17;2.03;;;;;;;;;;5115899;28;20243;-69
2022/10/22 10:55:42;;;;;;;5.93;1.80;;;;;;;;;;5115876;28;20275;-68
2022/10/22 10:58:16;;;;;;;8.20;2.20;;;;;;;;;;5092609;28;20238;-69
2022/10/22 11:01:02;;;;;;;9.87;2.20;;;;;;;;;;5116565;28;20188;-69
2022/10/22 11:03:44;;;;;;;7.40;2.30;;;;;;;;;;5114853;28;20661;-69
2022/10/22 11:06:11;;;;;;;8.43;2.40;;;;;;;;;;5116370;28;20172;-69
2022/10/22 11:08:42;;;;;;;9.03;2.17;;;;;;;;;;5115323;28;20201;-69
2022/10/22 11:11:26;;;;;;;8.93;2.33;;;;;;;;;;5115471;28;20161;-69
2022/10/22 11:13:56;;;;;;;6.13;2.40;;;;;;;;;;5115274;28;20191;-69
2022/10/22 11:16:36;;;;;;;8.30;2.30;;;;;;;;;;5113771;28;20204;-69
2022/10/22 11:19:06;;;;;;;7.40;2.00;;;;;;;;;;5114672;28;20172;-69
2022/10/22 11:21:36;;;;;;;5.90;2.13;;;;;;;;;;5115330;28;20179;-69
2022/10/22 11:24:07;;;;;;;6.27;1.90;;;;;;;;;;5115193;28;20176;-69
2022/10/22 11:26:37;;;;;;;7.80;2.17;;;;;;;;;;5113520;28;20169;-69
2022/10/22 11:29:04;;;;;;;5.37;1.90;;;;;;;;;;5115094;28;20620;-68
2022/10/22 11:31:31;;;;;;;5.50;1.87;;;;;;;;;;5113756;28;20181;-69
2022/10/22 11:34:11;;;;;;;8.17;2.30;;;;;;;;;;5113634;28;20208;-69
2022/10/22 11:36:38;;;;;;;4.83;1.73;;;;;;;;;;5141658;22;20221;-65
2022/10/22 11:39:04;;;;;;;7.40;2.43;;;;;;;;;;5115340;28;20173;-65
2022/10/22 11:41:32;;;;;;;6.77;2.17;;;;;;;;;;5114892;28;20173;-65
2022/10/22 11:44:08;;;;;;;6.60;1.83;;;;;;;;;;5115285;28;20252;-65
2022/10/22 11:46:36;;;;;;;12.37;2.50;;;;;;;;;;5114894;28;20709;-65
2022/10/22 11:49:16;;;;;;;6.53;2.00;;;;;;;;;;5114487;28;20181;-65
2022/10/22 11:51:44;;;;;;;4.63;1.93;;;;;;;;;;5115125;28;20212;-65
2022/10/22 11:54:30;;;;;;;6.87;2.70;;;;;;;;;;5114567;28;20206;-65
2022/10/22 11:57:16;;;;;;;5.77;2.53;;;;;;;;;;5114357;28;20200;-65
2022/10/22 11:59:42;;;;;;;8.57;2.23;;;;;;;;;;5096302;28;20196;-67
2022/10/22 12:02:23;;;;;;;3.77;2.40;;;;;;;;;;5114553;28;20230;-67
2022/10/22 12:04:49;;;;;;;6.50;2.53;;;;;;;;;;5114370;28;20642;-69
2022/10/22 12:07:32;;;;;;;10.83;2.53;;;;;;;;;;5114534;28;20299;-67
2022/10/22 12:09:58;;;;;;;6.17;2.40;;;;;;;;;;5096156;28;20180;-67
2022/10/22 12:12:27;;;;;;;7.37;2.27;;;;;;;;;;5095389;28;20180;-67
2022/10/22 12:14:54;;;;;;;9.00;2.47;;;;;;;;;;5095817;28;20688;-67
2022/10/22 12:17:21;;;;;;;9.93;2.10;;;;;;;;;;5095642;28;20197;-67
2022/10/22 12:20:01;;;;;;;7.97;1.97;;;;;;;;;;5114013;28;20187;-67
2022/10/22 12:22:30;;;;;;;5.87;1.87;;;;;;;;;;5113932;28;20172;-67
2022/10/22 12:25:00;;;;;;;7.17;2.30;;;;;;;;;;5113951;28;20662;-67
2022/10/22 12:27:28;;;;;;;8.83;2.63;;;;;;;;;;5113953;28;20223;-67
2022/10/22 12:29:55;;;;;;;7.63;2.37;;;;;;;;;;5114484;28;20629;-67
2022/10/22 12:32:21;;;;;;;7.97;1.87;;;;;;;;;;5113826;28;20636;-67
2022/10/22 12:34:48;;;;;;;5.33;1.83;;;;;;;;;;5095454;28;20260;-67
2022/10/22 12:37:14;;;;;;;5.90;1.93;;;;;;;;;;5113814;28;20204;-67
2022/10/22 12:39:41;;;;;;;5.97;2.07;;;;;;;;;;5114202;28;20176;-66
2022/10/22 12:42:07;;;;;;;4.83;1.90;;;;;;;;;;5113885;28;20563;-66
2022/10/22 12:44:33;;;;;;;6.40;2.37;;;;;;;;;;5113702;28;20255;-67
2022/10/22 12:46:59;;;;;;;5.17;1.83;;;;;;;;;;5113789;28;20271;-67
2022/10/22 12:49:31;;;;;;;4.63;2.10;;;;;;;;;;5113883;28;20188;-66
2022/10/22 12:52:00;;;;;;;3.83;1.83;;;;;;;;;;5113776;28;20161;-66
2022/10/22 12:54:27;;;;;;;5.37;2.20;;;;;;;;;;5095285;28;20216;-66
2022/10/22 12:56:54;;;;;;;8.17;2.27;;;;;;;;;;5113629;28;20661;-66
2022/10/22 12:59:22;;;;;;;11.30;2.50;;;;;;;;;;5113935;28;20651;-66
2022/10/22 13:01:48;;;;;;;5.37;2.03;;;;;;;;;;5097756;28;20176;-67
2022/10/22 13:04:14;;;;;;;4.30;2.07;;;;;;;;;;5097073;28;20187;-66
2022/10/22 13:06:43;;;;;;;7.13;2.17;;;;;;;;;;5113431;28;20196;-67
2022/10/22 13:09:15;;;;;;;4.40;1.83;;;;;;;;;;5113406;28;20188;-67
2022/10/22 13:11:49;;;;;;;5.27;2.10;;;;;;;;;;5095252;28;20180;-66
2022/10/22 13:14:18;;;;;;;8.80;1.83;;;;;;;;;;5113944;28;20168;-67
2022/10/22 13:17:01;;;;;;;7.17;1.80;;;;;;;;;;5113094;28;20204;-67
2022/10/22 13:19:54;;;;;;;5.67;2.20;;;;;;;;;;5094944;28;20218;-66
2022/10/22 13:22:25;;;;;;;5.20;2.10;;;;;;;;;;5109593;28;20189;-66
2022/10/22 13:24:52;;;;;;;6.57;2.07;;;;;;;;;;5116879;28;20199;-66
2022/10/22 13:27:18;;;;;;;2.47;1.70;;;;;;;;;;5117509;28;20212;-65
2022/10/22 13:29:45;;;;;;;10.23;2.10;;;;;;;;;;5117134;28;20180;-66
2022/10/22 13:32:29;;;;;;;7.67;2.00;;;;;;;;;;5117635;28;20180;-65
2022/10/22 13:34:57;;;;;;;4.23;2.10;;;;;;;;;;5098982;28;20243;-67
2022/10/22 13:37:23;;;;;;;5.27;1.90;;;;;;;;;;5116859;28;20269;-67
2022/10/22 13:39:49;;;;;;;11.23;2.47;;;;;;;;;;5117181;28;20173;-66
2022/10/22 13:42:15;;;;;;;7.17;2.40;;;;;;;;;;5117066;28;20655;-66
2022/10/22 13:44:41;;;;;;;5.77;2.10;;;;;;;;;;5117003;28;20183;-67
2022/10/22 13:47:25;;;;;;;5.07;2.27;;;;;;;;;;5117262;28;20223;-67
2022/10/22 13:49:53;;;;;;;6.43;2.13;;;;;;;;;;5117496;28;20184;-66
2022/10/22 13:52:25;;;;;;;10.47;2.20;;;;;;;;;;5116854;28;20288;-67
2022/10/22 13:54:50;;;;;;;5.83;2.20;;;;;;;;;;5117107;28;20280;-66
2022/10/22 13:57:16;;;;;;;3.90;2.20;;;;;;;;;;5098554;28;20739;-68
2022/10/22 13:59:42;;;;;;;6.63;2.30;;;;;;;;;;5116974;28;20208;-68
2022/10/22 14:02:10;;;;;;;7.77;2.27;;;;;;;;;;5116681;28;20172;-67
2022/10/22 14:04:38;;;;;;;8.60;2.10;;;;;;;;;;5116720;28;20168;-68
2022/10/22 14:07:05;;;;;;;5.93;2.10;;;;;;;;;;5098259;28;20245;-67
2022/10/22 14:09:31;;;;;;;6.93;2.40;;;;;;;;;;5116734;28;20547;-68
2022/10/22 14:11:57;;;;;;;4.27;2.40;;;;;;;;;;5116517;28;20172;-68
2022/10/22 14:14:23;;;;;;;6.23;2.20;;;;;;;;;;5116328;28;20716;-68
2022/10/22 14:16:48;;;;;;;7.57;2.40;;;;;;;;;;5116264;28;20589;-68
2022/10/22 14:19:15;;;;;;;5.87;2.20;;;;;;;;;;5116413;28;20268;-68
2022/10/22 14:21:41;;;;;;;7.97;3.03;;;;;;;;;;5116229;28;20704;-66
2022/10/22 14:24:09;;;;;;;9.17;3.10;;;;;;;;;;5097946;28;20212;-66
2022/10/22 14:26:35;;;;;;;12.20;2.70;;;;;;;;;;5116472;28;20600;-67
2022/10/22 14:29:01;;;;;;;10.13;2.33;;;;;;;;;;5116492;28;20256;-67
2022/10/22 14:31:27;;;;;;;9.23;2.30;;;;;;;;;;5116252;28;20172;-68
2022/10/22 14:33:53;;;;;;;5.33;2.30;;;;;;;;;;5097363;28;20177;-67
2022/10/22 14:36:19;;;;;;;4.90;2.53;;;;;;;;;;5115792;28;20208;-67
2022/10/22 14:38:46;;;;;;;7.37;2.10;;;;;;;;;;5116573;28;20514;-66
2022/10/22 14:41:20;;;;;;;6.50;2.30;;;;;;;;;;5116023;28;20173;-67